sensor_id;sensor_type;location;lat;lon;timestamp;P1;durP1;ratioP1;P2;durP2;ratioP2
7965;SDS011;4028;43.272;26.932;2023-02-21T00:02:06;2.77;;;2.23;;
7965;SDS011;4028;43.272;26.932;2023-02-21T00:04:50;2.00;;;1.80;;
7965;SDS011;4028;43.272;26.932;2023-02-21T00:07:34;3.03;;;1.90;;
7965;SDS011;4028;43.272;26.932;2023-02-21T00:10:17;1.93;;;1.70;;
7965;SDS011;4028;43.272;26.932;2023-02-21T00:13:02;2.67;;;1.80;;
7965;SDS011;4028;43.272;26.932;2023-02-21T00:15:46;2.47;;;2.10;;
7965;SDS011;4028;43.272;26.932;2023-02-21T00:18:33;1.90;;;1.70;;
7965;SDS011;4028;43.272;26.932;2023-02-21T00:21:18;3.77;;;1.97;;
7965;SDS011;4028;43.272;26.932;2023-02-21T00:24:02;1.90;;;1.70;;
7965;SDS011;4028;43.272;26.932;2023-02-21T00:26:47;1.93;;;1.70;;
7965;SDS011;4028;43.272;26.932;2023-02-21T00:29:31;2.53;;;1.83;;
7965;SDS011;4028;43.272;26.932;2023-02-21T00:32:14;1.60;;;1.50;;
7965;SDS011;4028;43.272;26.932;2023-02-21T00:34:58;3.10;;;1.90;;
7965;SDS011;4028;43.272;26.932;2023-02-21T00:37:42;1.70;;;1.60;;
7965;SDS011;4028;43.272;26.932;2023-02-21T00:40:26;3.40;;;1.90;;
7965;SDS011;4028;43.272;26.932;2023-02-21T00:43:10;1.77;;;1.67;;
7965;SDS011;4028;43.272;26.932;2023-02-21T00:45:54;2.90;;;2.03;;
7965;SDS011;4028;43.272;26.932;2023-02-21T00:48:38;4.70;;;2.23;;
7965;SDS011;4028;43.272;26.932;2023-02-21T00:51:22;2.30;;;1.90;;
7965;SDS011;4028;43.272;26.932;2023-02-21T00:54:06;2.40;;;1.70;;
7965;SDS011;4028;43.272;26.932;2023-02-21T00:56:50;1.47;;;1.37;;
7965;SDS011;4028;43.272;26.932;2023-02-21T00:59:34;1.90;;;1.70;;
7965;SDS011;4028;43.272;26.932;2023-02-21T01:02:18;1.97;;;1.77;;
7965;SDS011;4028;43.272;26.932;2023-02-21T01:05:02;2.90;;;2.00;;
7965;SDS011;4028;43.272;26.932;2023-02-21T01:07:47;2.13;;;1.53;;
7965;SDS011;4028;43.272;26.932;2023-02-21T01:10:31;1.93;;;1.70;;
7965;SDS011;4028;43.272;26.932;2023-02-21T01:13:15;2.23;;;1.40;;
7965;SDS011;4028;43.272;26.932;2023-02-21T01:15:59;1.40;;;1.30;;
7965;SDS011;4028;43.272;26.932;2023-02-21T01:18:43;2.33;;;1.77;;
7965;SDS011;4028;43.272;26.932;2023-02-21T01:21:27;1.87;;;1.77;;
7965;SDS011;4028;43.272;26.932;2023-02-21T01:24:12;2.73;;;1.90;;
7965;SDS011;4028;43.272;26.932;2023-02-21T01:26:57;1.67;;;1.57;;
7965;SDS011;4028;43.272;26.932;2023-02-21T01:29:42;2.17;;;1.57;;
7965;SDS011;4028;43.272;26.932;2023-02-21T01:32:26;1.67;;;1.57;;
7965;SDS011;4028;43.272;26.932;2023-02-21T01:35:10;2.13;;;1.60;;
7965;SDS011;4028;43.272;26.932;2023-02-21T01:37:54;1.97;;;1.50;;
7965;SDS011;4028;43.272;26.932;2023-02-21T01:40:38;1.70;;;1.60;;
7965;SDS011;4028;43.272;26.932;2023-02-21T01:43:23;2.30;;;1.57;;
7965;SDS011;4028;43.272;26.932;2023-02-21T01:46:18;1.73;;;1.30;;
7965;SDS011;4028;43.272;26.932;2023-02-21T01:49:11;1.60;;;1.50;;
7965;SDS011;4028;43.272;26.932;2023-02-21T01:51:59;1.53;;;1.33;;
7965;SDS011;4028;43.272;26.932;2023-02-21T01:54:48;2.17;;;1.53;;
7965;SDS011;4028;43.272;26.932;2023-02-21T01:57:35;1.53;;;1.27;;
7965;SDS011;4028;43.272;26.932;2023-02-21T02:00:19;1.77;;;1.50;;
7965;SDS011;4028;43.272;26.932;2023-02-21T02:03:05;1.50;;;1.40;;
7965;SDS011;4028;43.272;26.932;2023-02-21T02:05:54;2.80;;;1.60;;
7965;SDS011;4028;43.272;26.932;2023-02-21T02:09:05;1.73;;;1.50;;
7965;SDS011;4028;43.272;26.932;2023-02-21T02:23:27;1.57;;;1.47;;
7965;SDS011;4028;43.272;26.932;2023-02-21T02:34:34;2.43;;;1.90;;
7965;SDS011;4028;43.272;26.932;2023-02-21T02:37:17;1.80;;;1.70;;
7965;SDS011;4028;43.272;26.932;2023-02-21T02:45:06;2.00;;;1.73;;
7965;SDS011;4028;43.272;26.932;2023-02-21T02:47:57;2.20;;;1.60;;
7965;SDS011;4028;43.272;26.932;2023-02-21T02:50:28;1.50;;;1.40;;
7965;SDS011;4028;43.272;26.932;2023-02-21T02:52:55;2.20;;;1.67;;
7965;SDS011;4028;43.272;26.932;2023-02-21T02:58:13;1.77;;;1.60;;
7965;SDS011;4028;43.272;26.932;2023-02-21T03:00:43;1.77;;;1.67;;
7965;SDS011;4028;43.272;26.932;2023-02-21T03:03:23;3.70;;;1.63;;
7965;SDS011;4028;43.272;26.932;2023-02-21T03:06:09;2.30;;;1.73;;
7965;SDS011;4028;43.272;26.932;2023-02-21T03:11:31;1.90;;;1.67;;
7965;SDS011;4028;43.272;26.932;2023-02-21T03:14:15;2.73;;;1.60;;
7965;SDS011;4028;43.272;26.932;2023-02-21T03:16:48;1.53;;;1.43;;
7965;SDS011;4028;43.272;26.932;2023-02-21T03:19:19;1.97;;;1.43;;
7965;SDS011;4028;43.272;26.932;2023-02-21T03:24:41;3.10;;;1.53;;
7965;SDS011;4028;43.272;26.932;2023-02-21T03:27:10;5.07;;;1.60;;
7965;SDS011;4028;43.272;26.932;2023-02-21T03:29:37;1.67;;;1.57;;
7965;SDS011;4028;43.272;26.932;2023-02-21T03:32:08;3.00;;;1.77;;
7965;SDS011;4028;43.272;26.932;2023-02-21T03:34:39;2.27;;;1.97;;
7965;SDS011;4028;43.272;26.932;2023-02-21T03:37:06;2.33;;;1.80;;
7965;SDS011;4028;43.272;26.932;2023-02-21T03:39:35;1.80;;;1.70;;
7965;SDS011;4028;43.272;26.932;2023-02-21T03:42:01;1.60;;;1.50;;
7965;SDS011;4028;43.272;26.932;2023-02-21T03:44:26;1.70;;;1.60;;
7965;SDS011;4028;43.272;26.932;2023-02-21T03:46:52;2.17;;;1.87;;
7965;SDS011;4028;43.272;26.932;2023-02-21T03:49:18;1.87;;;1.70;;
7965;SDS011;4028;43.272;26.932;2023-02-21T03:51:43;1.87;;;1.77;;
7965;SDS011;4028;43.272;26.932;2023-02-21T03:54:09;2.30;;;1.97;;
7965;SDS011;4028;43.272;26.932;2023-02-21T03:56:34;2.13;;;1.80;;
7965;SDS011;4028;43.272;26.932;2023-02-21T03:58:59;2.53;;;1.70;;
7965;SDS011;4028;43.272;26.932;2023-02-21T04:01:25;3.30;;;2.00;;
7965;SDS011;4028;43.272;26.932;2023-02-21T04:03:51;2.20;;;2.00;;
7965;SDS011;4028;43.272;26.932;2023-02-21T04:06:16;2.20;;;2.00;;
7965;SDS011;4028;43.272;26.932;2023-02-21T04:08:42;3.63;;;1.80;;
7965;SDS011;4028;43.272;26.932;2023-02-21T04:11:07;2.33;;;1.80;;
7965;SDS011;4028;43.272;26.932;2023-02-21T04:13:33;3.63;;;2.00;;
7965;SDS011;4028;43.272;26.932;2023-02-21T04:15:58;2.30;;;2.10;;
7965;SDS011;4028;43.272;26.932;2023-02-21T04:18:24;3.13;;;2.10;;
7965;SDS011;4028;43.272;26.932;2023-02-21T04:20:49;6.13;;;2.10;;
7965;SDS011;4028;43.272;26.932;2023-02-21T04:23:16;3.33;;;2.33;;
7965;SDS011;4028;43.272;26.932;2023-02-21T04:25:45;3.47;;;2.23;;
7965;SDS011;4028;43.272;26.932;2023-02-21T04:28:11;2.10;;;1.90;;
7965;SDS011;4028;43.272;26.932;2023-02-21T04:30:36;4.23;;;2.57;;
7965;SDS011;4028;43.272;26.932;2023-02-21T04:33:02;3.43;;;2.63;;
7965;SDS011;4028;43.272;26.932;2023-02-21T04:35:28;2.17;;;1.97;;
7965;SDS011;4028;43.272;26.932;2023-02-21T04:37:54;2.23;;;2.03;;
7965;SDS011;4028;43.272;26.932;2023-02-21T04:40:19;2.67;;;2.00;;
7965;SDS011;4028;43.272;26.932;2023-02-21T04:42:45;2.10;;;1.90;;
7965;SDS011;4028;43.272;26.932;2023-02-21T04:45:10;2.67;;;2.27;;
7965;SDS011;4028;43.272;26.932;2023-02-21T04:47:36;2.03;;;1.87;;
7965;SDS011;4028;43.272;26.932;2023-02-21T04:50:02;2.87;;;2.30;;
7965;SDS011;4028;43.272;26.932;2023-02-21T04:52:28;4.13;;;2.47;;
7965;SDS011;4028;43.272;26.932;2023-02-21T04:54:53;5.77;;;5.17;;
7965;SDS011;4028;43.272;26.932;2023-02-21T04:57:19;2.73;;;2.53;;
7965;SDS011;4028;43.272;26.932;2023-02-21T04:59:44;3.07;;;2.70;;
7965;SDS011;4028;43.272;26.932;2023-02-21T05:02:10;2.83;;;2.17;;
7965;SDS011;4028;43.272;26.932;2023-02-21T05:04:36;2.53;;;2.20;;
7965;SDS011;4028;43.272;26.932;2023-02-21T05:07:01;2.40;;;2.20;;
7965;SDS011;4028;43.272;26.932;2023-02-21T05:09:28;5.03;;;2.30;;
7965;SDS011;4028;43.272;26.932;2023-02-21T05:11:54;2.80;;;2.43;;
7965;SDS011;4028;43.272;26.932;2023-02-21T05:14:20;3.10;;;2.67;;
7965;SDS011;4028;43.272;26.932;2023-02-21T05:16:45;2.93;;;2.63;;
7965;SDS011;4028;43.272;26.932;2023-02-21T05:19:11;2.73;;;2.53;;
7965;SDS011;4028;43.272;26.932;2023-02-21T05:21:36;3.03;;;2.83;;
7965;SDS011;4028;43.272;26.932;2023-02-21T05:24:03;4.93;;;3.07;;
7965;SDS011;4028;43.272;26.932;2023-02-21T05:26:32;3.60;;;3.20;;
7965;SDS011;4028;43.272;26.932;2023-02-21T05:29:01;5.10;;;3.87;;
7965;SDS011;4028;43.272;26.932;2023-02-21T05:31:28;4.07;;;3.67;;
7965;SDS011;4028;43.272;26.932;2023-02-21T05:33:53;5.37;;;3.33;;
7965;SDS011;4028;43.272;26.932;2023-02-21T05:36:19;5.40;;;4.00;;
7965;SDS011;4028;43.272;26.932;2023-02-21T05:38:49;3.53;;;3.23;;
7965;SDS011;4028;43.272;26.932;2023-02-21T05:41:16;5.03;;;3.50;;
7965;SDS011;4028;43.272;26.932;2023-02-21T05:43:43;3.87;;;3.50;;
7965;SDS011;4028;43.272;26.932;2023-02-21T05:46:23;3.00;;;2.70;;
7965;SDS011;4028;43.272;26.932;2023-02-21T05:48:51;5.40;;;3.10;;
7965;SDS011;4028;43.272;26.932;2023-02-21T05:51:17;5.10;;;3.33;;
7965;SDS011;4028;43.272;26.932;2023-02-21T05:53:43;3.63;;;3.10;;
7965;SDS011;4028;43.272;26.932;2023-02-21T05:56:09;4.97;;;2.93;;
7965;SDS011;4028;43.272;26.932;2023-02-21T05:58:34;5.10;;;3.30;;
7965;SDS011;4028;43.272;26.932;2023-02-21T06:01:00;3.60;;;2.53;;
7965;SDS011;4028;43.272;26.932;2023-02-21T06:03:26;2.93;;;2.30;;
7965;SDS011;4028;43.272;26.932;2023-02-21T06:05:51;3.87;;;3.17;;
7965;SDS011;4028;43.272;26.932;2023-02-21T06:08:17;4.10;;;2.70;;
7965;SDS011;4028;43.272;26.932;2023-02-21T06:10:42;3.60;;;3.30;;
7965;SDS011;4028;43.272;26.932;2023-02-21T06:13:08;5.47;;;4.97;;
7965;SDS011;4028;43.272;26.932;2023-02-21T06:15:33;3.90;;;3.20;;
7965;SDS011;4028;43.272;26.932;2023-02-21T06:17:59;5.10;;;3.00;;
7965;SDS011;4028;43.272;26.932;2023-02-21T06:20:24;3.90;;;3.50;;
7965;SDS011;4028;43.272;26.932;2023-02-21T06:22:50;4.23;;;3.50;;
7965;SDS011;4028;43.272;26.932;2023-02-21T06:25:15;5.87;;;3.07;;
7965;SDS011;4028;43.272;26.932;2023-02-21T06:27:41;3.63;;;3.20;;
7965;SDS011;4028;43.272;26.932;2023-02-21T06:30:08;3.83;;;3.50;;
7965;SDS011;4028;43.272;26.932;2023-02-21T06:32:34;4.50;;;3.23;;
7965;SDS011;4028;43.272;26.932;2023-02-21T06:34:59;4.43;;;3.50;;
7965;SDS011;4028;43.272;26.932;2023-02-21T06:37:25;5.63;;;3.90;;
7965;SDS011;4028;43.272;26.932;2023-02-21T06:39:50;5.13;;;3.40;;
7965;SDS011;4028;43.272;26.932;2023-02-21T06:42:16;5.00;;;3.07;;
7965;SDS011;4028;43.272;26.932;2023-02-21T06:44:46;5.27;;;3.40;;
7965;SDS011;4028;43.272;26.932;2023-02-21T06:47:13;4.53;;;3.17;;
7965;SDS011;4028;43.272;26.932;2023-02-21T06:49:38;3.70;;;3.37;;
7965;SDS011;4028;43.272;26.932;2023-02-21T06:52:04;4.57;;;3.10;;
7965;SDS011;4028;43.272;26.932;2023-02-21T06:54:30;3.50;;;3.17;;
7965;SDS011;4028;43.272;26.932;2023-02-21T06:56:56;5.10;;;3.20;;
7965;SDS011;4028;43.272;26.932;2023-02-21T06:59:23;3.83;;;3.07;;
7965;SDS011;4028;43.272;26.932;2023-02-21T07:01:48;5.67;;;3.53;;
7965;SDS011;4028;43.272;26.932;2023-02-21T07:04:13;9.73;;;3.40;;
7965;SDS011;4028;43.272;26.932;2023-02-21T07:06:39;5.70;;;3.07;;
7965;SDS011;4028;43.272;26.932;2023-02-21T07:09:04;7.50;;;3.30;;
7965;SDS011;4028;43.272;26.932;2023-02-21T07:11:30;4.23;;;3.23;;
7965;SDS011;4028;43.272;26.932;2023-02-21T07:13:58;5.47;;;3.40;;
7965;SDS011;4028;43.272;26.932;2023-02-21T07:16:24;3.80;;;3.40;;
7965;SDS011;4028;43.272;26.932;2023-02-21T07:18:50;4.87;;;3.00;;
7965;SDS011;4028;43.272;26.932;2023-02-21T07:21:17;5.73;;;3.00;;
7965;SDS011;4028;43.272;26.932;2023-02-21T07:23:44;3.53;;;2.97;;
7965;SDS011;4028;43.272;26.932;2023-02-21T07:26:11;3.70;;;3.00;;
7965;SDS011;4028;43.272;26.932;2023-02-21T07:28:36;7.73;;;3.60;;
7965;SDS011;4028;43.272;26.932;2023-02-21T07:31:02;4.00;;;3.10;;
7965;SDS011;4028;43.272;26.932;2023-02-21T07:33:28;7.77;;;4.10;;
7965;SDS011;4028;43.272;26.932;2023-02-21T07:35:53;5.73;;;3.90;;
7965;SDS011;4028;43.272;26.932;2023-02-21T07:38:23;5.50;;;3.30;;
7965;SDS011;4028;43.272;26.932;2023-02-21T07:40:50;5.13;;;3.60;;
7965;SDS011;4028;43.272;26.932;2023-02-21T07:43:19;4.90;;;3.10;;
7965;SDS011;4028;43.272;26.932;2023-02-21T07:45:44;7.67;;;3.17;;
7965;SDS011;4028;43.272;26.932;2023-02-21T07:48:10;3.10;;;2.80;;
7965;SDS011;4028;43.272;26.932;2023-02-21T07:50:38;7.63;;;3.40;;
7965;SDS011;4028;43.272;26.932;2023-02-21T07:53:07;6.03;;;3.10;;
7965;SDS011;4028;43.272;26.932;2023-02-21T07:55:33;7.10;;;3.00;;
7965;SDS011;4028;43.272;26.932;2023-02-21T07:57:59;6.10;;;3.27;;
7965;SDS011;4028;43.272;26.932;2023-02-21T08:00:25;3.53;;;2.90;;
7965;SDS011;4028;43.272;26.932;2023-02-21T08:02:51;3.90;;;3.17;;
7965;SDS011;4028;43.272;26.932;2023-02-21T08:05:17;4.63;;;3.20;;
7965;SDS011;4028;43.272;26.932;2023-02-21T08:07:44;3.60;;;2.67;;
7965;SDS011;4028;43.272;26.932;2023-02-21T08:10:10;3.73;;;2.90;;
7965;SDS011;4028;43.272;26.932;2023-02-21T08:12:36;5.77;;;3.40;;
7965;SDS011;4028;43.272;26.932;2023-02-21T08:15:02;3.80;;;3.43;;
7965;SDS011;4028;43.272;26.932;2023-02-21T08:17:29;5.67;;;3.73;;
7965;SDS011;4028;43.272;26.932;2023-02-21T08:19:55;6.23;;;3.10;;
7965;SDS011;4028;43.272;26.932;2023-02-21T08:22:20;5.57;;;3.50;;
7965;SDS011;4028;43.272;26.932;2023-02-21T08:24:48;9.80;;;2.93;;
7965;SDS011;4028;43.272;26.932;2023-02-21T08:27:14;5.83;;;3.47;;
7965;SDS011;4028;43.272;26.932;2023-02-21T08:29:39;3.73;;;3.00;;
7965;SDS011;4028;43.272;26.932;2023-02-21T08:32:05;5.10;;;3.00;;
7965;SDS011;4028;43.272;26.932;2023-02-21T08:34:30;9.37;;;3.50;;
7965;SDS011;4028;43.272;26.932;2023-02-21T08:36:56;10.20;;;3.20;;
7965;SDS011;4028;43.272;26.932;2023-02-21T08:39:21;3.53;;;3.13;;
7965;SDS011;4028;43.272;26.932;2023-02-21T08:41:47;9.77;;;3.50;;
7965;SDS011;4028;43.272;26.932;2023-02-21T08:44:15;8.00;;;3.60;;
7965;SDS011;4028;43.272;26.932;2023-02-21T08:46:41;6.67;;;4.60;;
7965;SDS011;4028;43.272;26.932;2023-02-21T08:49:07;7.47;;;3.00;;
7965;SDS011;4028;43.272;26.932;2023-02-21T08:51:34;3.30;;;3.00;;
7965;SDS011;4028;43.272;26.932;2023-02-21T08:53:59;2.70;;;2.43;;
7965;SDS011;4028;43.272;26.932;2023-02-21T08:56:26;3.30;;;3.00;;
7965;SDS011;4028;43.272;26.932;2023-02-21T08:58:52;6.60;;;3.53;;
7965;SDS011;4028;43.272;26.932;2023-02-21T09:01:19;4.93;;;2.90;;
7965;SDS011;4028;43.272;26.932;2023-02-21T09:03:45;5.73;;;2.70;;
7965;SDS011;4028;43.272;26.932;2023-02-21T09:06:10;6.83;;;3.00;;
7965;SDS011;4028;43.272;26.932;2023-02-21T09:08:36;3.30;;;2.90;;
7965;SDS011;4028;43.272;26.932;2023-02-21T09:11:02;3.83;;;3.00;;
7965;SDS011;4028;43.272;26.932;2023-02-21T09:13:29;3.43;;;3.13;;
7965;SDS011;4028;43.272;26.932;2023-02-21T09:15:57;10.67;;;3.50;;
7965;SDS011;4028;43.272;26.932;2023-02-21T09:18:23;3.43;;;3.13;;
7965;SDS011;4028;43.272;26.932;2023-02-21T09:20:48;5.47;;;2.93;;
7965;SDS011;4028;43.272;26.932;2023-02-21T09:23:20;3.83;;;3.27;;
7965;SDS011;4028;43.272;26.932;2023-02-21T09:25:48;3.63;;;2.40;;
7965;SDS011;4028;43.272;26.932;2023-02-21T09:28:15;3.17;;;2.87;;
7965;SDS011;4028;43.272;26.932;2023-02-21T09:30:41;4.73;;;2.67;;
7965;SDS011;4028;43.272;26.932;2023-02-21T09:33:07;3.57;;;3.27;;
7965;SDS011;4028;43.272;26.932;2023-02-21T09:35:33;4.83;;;3.40;;
7965;SDS011;4028;43.272;26.932;2023-02-21T09:37:59;6.37;;;3.50;;
7965;SDS011;4028;43.272;26.932;2023-02-21T09:43:03;4.20;;;2.70;;
7965;SDS011;4028;43.272;26.932;2023-02-21T09:45:33;3.67;;;2.70;;
7965;SDS011;4028;43.272;26.932;2023-02-21T09:48:01;4.23;;;3.17;;
7965;SDS011;4028;43.272;26.932;2023-02-21T09:50:39;3.07;;;2.77;;
7965;SDS011;4028;43.272;26.932;2023-02-21T09:53:08;5.90;;;5.30;;
7965;SDS011;4028;43.272;26.932;2023-02-21T09:55:37;3.00;;;2.70;;
7965;SDS011;4028;43.272;26.932;2023-02-21T09:58:05;2.67;;;2.23;;
7965;SDS011;4028;43.272;26.932;2023-02-21T10:00:37;4.00;;;2.53;;
7965;SDS011;4028;43.272;26.932;2023-02-21T10:06:31;6.50;;;2.50;;
7965;SDS011;4028;43.272;26.932;2023-02-21T10:12:33;4.63;;;2.30;;
7965;SDS011;4028;43.272;26.932;2023-02-21T10:19:54;3.17;;;1.80;;
7965;SDS011;4028;43.272;26.932;2023-02-21T10:22:26;2.23;;;2.00;;
7965;SDS011;4028;43.272;26.932;2023-02-21T10:24:56;5.63;;;2.23;;
7965;SDS011;4028;43.272;26.932;2023-02-21T10:27:25;2.37;;;2.17;;
7965;SDS011;4028;43.272;26.932;2023-02-21T10:30:02;4.03;;;2.50;;
7965;SDS011;4028;43.272;26.932;2023-02-21T10:32:34;2.77;;;2.30;;
7965;SDS011;4028;43.272;26.932;2023-02-21T10:35:01;4.90;;;2.27;;
7965;SDS011;4028;43.272;26.932;2023-02-21T10:37:43;4.97;;;2.50;;
7965;SDS011;4028;43.272;26.932;2023-02-21T10:42:49;3.63;;;2.50;;
7965;SDS011;4028;43.272;26.932;2023-02-21T10:45:19;3.50;;;2.80;;
7965;SDS011;4028;43.272;26.932;2023-02-21T10:53:03;3.03;;;2.20;;
7965;SDS011;4028;43.272;26.932;2023-02-21T10:55:28;4.93;;;2.40;;
7965;SDS011;4028;43.272;26.932;2023-02-21T10:57:55;4.13;;;2.20;;
7965;SDS011;4028;43.272;26.932;2023-02-21T11:00:25;3.50;;;2.53;;
7965;SDS011;4028;43.272;26.932;2023-02-21T11:03:01;5.50;;;2.43;;
7965;SDS011;4028;43.272;26.932;2023-02-21T11:05:30;4.83;;;2.40;;
7965;SDS011;4028;43.272;26.932;2023-02-21T11:08:00;3.03;;;2.13;;
7965;SDS011;4028;43.272;26.932;2023-02-21T11:10:37;3.95;;;2.63;;
7965;SDS011;4028;43.272;26.932;2023-02-21T11:13:39;4.07;;;2.10;;
7965;SDS011;4028;43.272;26.932;2023-02-21T11:16:11;2.83;;;2.05;;
7965;SDS011;4028;43.272;26.932;2023-02-21T11:18:41;3.80;;;2.13;;
7965;SDS011;4028;43.272;26.932;2023-02-21T11:21:24;5.85;;;2.30;;
7965;SDS011;4028;43.272;26.932;2023-02-21T11:23:53;4.63;;;2.42;;
7965;SDS011;4028;43.272;26.932;2023-02-21T11:26:27;3.97;;;2.45;;
7965;SDS011;4028;43.272;26.932;2023-02-21T11:29:14;4.85;;;2.80;;
7965;SDS011;4028;43.272;26.932;2023-02-21T11:31:45;4.18;;;2.40;;
7965;SDS011;4028;43.272;26.932;2023-02-21T11:34:11;4.72;;;2.20;;
7965;SDS011;4028;43.272;26.932;2023-02-21T11:36:39;3.47;;;2.00;;
7965;SDS011;4028;43.272;26.932;2023-02-21T11:42:03;2.83;;;2.15;;
7965;SDS011;4028;43.272;26.932;2023-02-21T11:44:47;7.05;;;2.20;;
7965;SDS011;4028;43.272;26.932;2023-02-21T11:47:30;2.95;;;1.80;;
7965;SDS011;4028;43.272;26.932;2023-02-21T11:50:09;4.75;;;1.98;;
7965;SDS011;4028;43.272;26.932;2023-02-21T11:52:53;3.85;;;2.08;;
7965;SDS011;4028;43.272;26.932;2023-02-21T11:55:25;5.57;;;2.10;;
7965;SDS011;4028;43.272;26.932;2023-02-21T11:58:40;2.40;;;2.20;;
7965;SDS011;4028;43.272;26.932;2023-02-21T12:11:43;12.15;;;2.75;;
7965;SDS011;4028;43.272;26.932;2023-02-21T12:39:15;6.32;;;2.20;;
7965;SDS011;4028;43.272;26.932;2023-02-21T12:50:20;7.38;;;3.20;;
7965;SDS011;4028;43.272;26.932;2023-02-21T12:53:00;5.03;;;2.13;;
7965;SDS011;4028;43.272;26.932;2023-02-21T12:55:38;2.25;;;2.05;;
7965;SDS011;4028;43.272;26.932;2023-02-21T12:58:23;5.70;;;2.22;;
7965;SDS011;4028;43.272;26.932;2023-02-21T13:01:18;5.90;;;2.63;;
7965;SDS011;4028;43.272;26.932;2023-02-21T13:06:52;5.30;;;2.20;;
7965;SDS011;4028;43.272;26.932;2023-02-21T13:09:24;4.47;;;1.67;;
7965;SDS011;4028;43.272;26.932;2023-02-21T13:12:18;2.30;;;1.85;;
7965;SDS011;4028;43.272;26.932;2023-02-21T13:14:48;3.22;;;1.88;;
7965;SDS011;4028;43.272;26.932;2023-02-21T13:17:19;4.82;;;2.20;;
7965;SDS011;4028;43.272;26.932;2023-02-21T13:19:56;4.47;;;2.25;;
7965;SDS011;4028;43.272;26.932;2023-02-21T13:28:45;4.80;;;2.30;;
7965;SDS011;4028;43.272;26.932;2023-02-21T13:31:17;2.38;;;2.08;;
7965;SDS011;4028;43.272;26.932;2023-02-21T13:33:50;5.78;;;2.53;;
7965;SDS011;4028;43.272;26.932;2023-02-21T13:38:58;3.55;;;2.08;;
7965;SDS011;4028;43.272;26.932;2023-02-21T13:41:28;4.28;;;2.20;;
7965;SDS011;4028;43.272;26.932;2023-02-21T13:43:58;2.83;;;2.10;;
7965;SDS011;4028;43.272;26.932;2023-02-21T13:57:38;5.85;;;2.42;;
7965;SDS011;4028;43.272;26.932;2023-02-21T14:05:19;5.05;;;2.30;;
7965;SDS011;4028;43.272;26.932;2023-02-21T14:08:04;4.53;;;4.13;;
7965;SDS011;4028;43.272;26.932;2023-02-21T14:10:35;4.07;;;2.42;;
7965;SDS011;4028;43.272;26.932;2023-02-21T14:13:05;4.53;;;2.13;;
7965;SDS011;4028;43.272;26.932;2023-02-21T14:15:44;5.25;;;2.10;;
7965;SDS011;4028;43.272;26.932;2023-02-21T14:18:17;8.48;;;2.97;;
7965;SDS011;4028;43.272;26.932;2023-02-21T14:20:49;2.72;;;2.33;;
7965;SDS011;4028;43.272;26.932;2023-02-21T14:23:16;4.25;;;2.17;;
7965;SDS011;4028;43.272;26.932;2023-02-21T14:25:54;8.00;;;2.30;;
7965;SDS011;4028;43.272;26.932;2023-02-21T14:34:50;9.38;;;2.58;;
7965;SDS011;4028;43.272;26.932;2023-02-21T14:39:47;4.88;;;2.80;;
7965;SDS011;4028;43.272;26.932;2023-02-21T14:42:32;5.60;;;2.60;;
7965;SDS011;4028;43.272;26.932;2023-02-21T14:58:00;7.03;;;2.95;;
7965;SDS011;4028;43.272;26.932;2023-02-21T15:00:32;4.57;;;2.70;;
7965;SDS011;4028;43.272;26.932;2023-02-21T15:08:20;5.17;;;2.53;;
7965;SDS011;4028;43.272;26.932;2023-02-21T15:10:48;4.63;;;3.28;;
7965;SDS011;4028;43.272;26.932;2023-02-21T15:13:34;2.50;;;2.30;;
7965;SDS011;4028;43.272;26.932;2023-02-21T15:18:37;4.43;;;2.47;;
7965;SDS011;4028;43.272;26.932;2023-02-21T15:23:37;6.87;;;3.73;;
7965;SDS011;4028;43.272;26.932;2023-02-21T15:26:19;3.90;;;2.70;;
7965;SDS011;4028;43.272;26.932;2023-02-21T15:29:07;6.73;;;3.57;;
7965;SDS011;4028;43.272;26.932;2023-02-21T15:31:45;4.27;;;2.93;;
7965;SDS011;4028;43.272;26.932;2023-02-21T15:34:14;5.83;;;3.40;;
7965;SDS011;4028;43.272;26.932;2023-02-21T15:36:45;8.37;;;3.77;;
7965;SDS011;4028;43.272;26.932;2023-02-21T15:41:54;8.90;;;3.30;;
7965;SDS011;4028;43.272;26.932;2023-02-21T15:44:43;15.73;;;8.23;;
7965;SDS011;4028;43.272;26.932;2023-02-21T15:47:31;6.20;;;5.10;;
7965;SDS011;4028;43.272;26.932;2023-02-21T15:52:53;4.07;;;3.67;;
7965;SDS011;4028;43.272;26.932;2023-02-21T16:01:10;7.87;;;4.73;;
7965;SDS011;4028;43.272;26.932;2023-02-21T16:03:41;4.57;;;3.47;;
7965;SDS011;4028;43.272;26.932;2023-02-21T16:11:41;7.67;;;4.47;;
7965;SDS011;4028;43.272;26.932;2023-02-21T16:14:17;5.07;;;3.80;;
7965;SDS011;4028;43.272;26.932;2023-02-21T16:19:36;5.47;;;3.80;;
7965;SDS011;4028;43.272;26.932;2023-02-21T16:22:12;4.97;;;3.90;;
7965;SDS011;4028;43.272;26.932;2023-02-21T16:24:49;5.23;;;4.00;;
7965;SDS011;4028;43.272;26.932;2023-02-21T16:27:32;4.83;;;4.20;;
7965;SDS011;4028;43.272;26.932;2023-02-21T16:29:57;4.50;;;3.70;;
7965;SDS011;4028;43.272;26.932;2023-02-21T16:32:23;6.83;;;3.40;;
7965;SDS011;4028;43.272;26.932;2023-02-21T16:34:49;6.03;;;3.13;;
7965;SDS011;4028;43.272;26.932;2023-02-21T16:37:18;9.53;;;3.87;;
7965;SDS011;4028;43.272;26.932;2023-02-21T16:39:45;7.13;;;3.20;;
7965;SDS011;4028;43.272;26.932;2023-02-21T16:42:11;5.23;;;3.00;;
7965;SDS011;4028;43.272;26.932;2023-02-21T16:44:37;4.20;;;2.90;;
7965;SDS011;4028;43.272;26.932;2023-02-21T16:47:02;5.60;;;3.57;;
7965;SDS011;4028;43.272;26.932;2023-02-21T16:49:28;4.20;;;3.33;;
7965;SDS011;4028;43.272;26.932;2023-02-21T16:51:53;4.53;;;3.70;;
7965;SDS011;4028;43.272;26.932;2023-02-21T16:54:19;9.57;;;3.80;;
7965;SDS011;4028;43.272;26.932;2023-02-21T16:56:46;4.20;;;3.63;;
7965;SDS011;4028;43.272;26.932;2023-02-21T16:59:16;6.50;;;4.27;;
7965;SDS011;4028;43.272;26.932;2023-02-21T17:01:43;8.00;;;3.80;;
7965;SDS011;4028;43.272;26.932;2023-02-21T17:04:20;10.57;;;4.17;;
7965;SDS011;4028;43.272;26.932;2023-02-21T17:06:52;8.17;;;3.90;;
7965;SDS011;4028;43.272;26.932;2023-02-21T17:09:21;9.50;;;4.13;;
7965;SDS011;4028;43.272;26.932;2023-02-21T17:11:48;6.73;;;4.13;;
7965;SDS011;4028;43.272;26.932;2023-02-21T17:14:14;4.90;;;4.30;;
7965;SDS011;4028;43.272;26.932;2023-02-21T17:16:39;7.20;;;4.00;;
7965;SDS011;4028;43.272;26.932;2023-02-21T17:19:09;10.73;;;4.17;;
7965;SDS011;4028;43.272;26.932;2023-02-21T17:21:42;5.43;;;4.27;;
7965;SDS011;4028;43.272;26.932;2023-02-21T17:24:08;9.00;;;5.77;;
7965;SDS011;4028;43.272;26.932;2023-02-21T17:26:35;9.97;;;7.00;;
7965;SDS011;4028;43.272;26.932;2023-02-21T17:29:00;4.17;;;3.53;;
7965;SDS011;4028;43.272;26.932;2023-02-21T17:31:26;4.90;;;3.13;;
7965;SDS011;4028;43.272;26.932;2023-02-21T17:33:51;7.23;;;4.03;;
7965;SDS011;4028;43.272;26.932;2023-02-21T17:36:19;8.70;;;4.47;;
7965;SDS011;4028;43.272;26.932;2023-02-21T17:38:46;7.20;;;3.93;;
7965;SDS011;4028;43.272;26.932;2023-02-21T17:41:12;4.43;;;3.37;;
7965;SDS011;4028;43.272;26.932;2023-02-21T17:43:39;3.33;;;2.60;;
7965;SDS011;4028;43.272;26.932;2023-02-21T17:46:08;4.50;;;3.33;;
7965;SDS011;4028;43.272;26.932;2023-02-21T17:48:35;5.70;;;3.83;;
7965;SDS011;4028;43.272;26.932;2023-02-21T17:51:01;6.33;;;4.13;;
7965;SDS011;4028;43.272;26.932;2023-02-21T17:53:27;5.43;;;3.97;;
7965;SDS011;4028;43.272;26.932;2023-02-21T17:55:53;7.07;;;5.13;;
7965;SDS011;4028;43.272;26.932;2023-02-21T17:58:20;6.27;;;4.30;;
7965;SDS011;4028;43.272;26.932;2023-02-21T18:00:46;6.23;;;3.70;;
7965;SDS011;4028;43.272;26.932;2023-02-21T18:03:11;4.70;;;3.73;;
7965;SDS011;4028;43.272;26.932;2023-02-21T18:05:37;4.83;;;3.00;;
7965;SDS011;4028;43.272;26.932;2023-02-21T18:08:03;6.27;;;3.33;;
7965;SDS011;4028;43.272;26.932;2023-02-21T18:10:29;7.00;;;3.60;;
7965;SDS011;4028;43.272;26.932;2023-02-21T18:12:55;4.23;;;3.47;;
7965;SDS011;4028;43.272;26.932;2023-02-21T18:15:21;8.40;;;3.63;;
7965;SDS011;4028;43.272;26.932;2023-02-21T18:17:48;9.70;;;4.17;;
7965;SDS011;4028;43.272;26.932;2023-02-21T18:20:14;5.13;;;3.53;;
7965;SDS011;4028;43.272;26.932;2023-02-21T18:22:40;5.80;;;4.00;;
7965;SDS011;4028;43.272;26.932;2023-02-21T18:25:05;5.97;;;4.73;;
7965;SDS011;4028;43.272;26.932;2023-02-21T18:27:33;8.57;;;4.77;;
7965;SDS011;4028;43.272;26.932;2023-02-21T18:29:59;7.20;;;4.00;;